createdAt,value
2022-11-16T00:01:57.056Z,17.45
2022-11-16T00:04:24.957Z,18.90
2022-11-16T00:06:52.868Z,24.60
2022-11-16T00:09:23.361Z,23.55
2022-11-16T00:11:52.654Z,22.02
2022-11-16T00:14:21.067Z,18.13
2022-11-16T00:16:49.223Z,21.77
2022-11-16T00:19:19.027Z,21.33
2022-11-16T00:21:47.122Z,20.33
2022-11-16T00:24:16.693Z,19.63
2022-11-16T00:26:44.780Z,20.83
2022-11-16T00:29:16.279Z,21.20
2022-11-16T00:31:45.072Z,15.35
2022-11-16T00:34:13.453Z,16.27
2022-11-16T00:36:42.608Z,23.45
2022-11-16T00:39:12.213Z,18.88
2022-11-16T00:41:39.956Z,26.63
2022-11-16T00:44:08.276Z,20.70
2022-11-16T00:46:35.999Z,17.00
2022-11-16T00:49:05.368Z,20.45
2022-11-16T00:51:33.553Z,20.40
2022-11-16T00:54:04.149Z,19.17
2022-11-16T00:56:34.226Z,20.85
2022-11-16T00:59:02.498Z,27.02
2022-11-16T01:01:30.375Z,24.23
2022-11-16T01:03:58.311Z,23.80
2022-11-16T01:06:26.135Z,27.67
2022-11-16T01:08:53.937Z,28.33
2022-11-16T01:11:43.308Z,29.67
2022-11-16T01:14:11.774Z,33.17
2022-11-16T01:16:39.457Z,38.67
2022-11-16T01:19:07.374Z,32.58
2022-11-16T01:21:35.181Z,32.17
2022-11-16T01:24:03.100Z,31.98
2022-11-16T01:26:32.167Z,28.48
2022-11-16T01:29:00.308Z,36.20
2022-11-16T01:31:31.915Z,34.65
2022-11-16T01:34:02.134Z,28.95
2022-11-16T01:36:30.935Z,36.35
2022-11-16T01:39:00.869Z,31.35
2022-11-16T01:41:34.478Z,34.92
2022-11-16T01:44:07.728Z,39.47
2022-11-16T01:46:44.629Z,40.20
2022-11-16T01:49:18.816Z,38.97
2022-11-16T01:51:50.795Z,42.53
2022-11-16T01:54:19.891Z,37.97
2022-11-16T01:57:01.618Z,32.83
2022-11-16T01:59:37.466Z,34.70
2022-11-16T02:02:07.049Z,37.20
2022-11-16T02:04:37.681Z,38.67
2022-11-16T02:07:13.913Z,35.50
2022-11-16T02:09:58.819Z,43.17
2022-11-16T02:13:11.363Z,34.40
2022-11-16T02:15:48.962Z,34.33
2022-11-16T02:18:34.241Z,41.78
2022-11-16T02:21:10.413Z,32.78
2022-11-16T02:24:34.499Z,28.75
2022-11-16T02:27:49.772Z,24.80
2022-11-16T02:30:19.913Z,20.17
2022-11-16T02:32:53.647Z,21.33
2022-11-16T02:35:27.063Z,23.58
2022-11-16T02:38:01.212Z,24.15
2022-11-16T02:40:32.745Z,23.15
2022-11-16T02:43:05.965Z,19.25
2022-11-16T02:48:10.729Z,20.00
2022-11-16T02:50:40.103Z,19.45
2022-11-16T02:53:07.878Z,26.35
2022-11-16T02:55:37.349Z,22.73
2022-11-16T02:58:07.319Z,23.35
2022-11-16T03:00:44.850Z,22.92
2022-11-16T03:03:25.006Z,22.65
2022-11-16T03:05:57.114Z,28.10
2022-11-16T03:08:30.498Z,27.88
2022-11-16T03:11:22.767Z,21.50
2022-11-16T03:13:52.883Z,21.95
2022-11-16T03:16:25.980Z,24.55
2022-11-16T03:18:56.632Z,24.23
2022-11-16T03:21:31.460Z,20.52
2022-11-16T03:26:34.385Z,24.05
2022-11-16T03:29:06.780Z,27.55
2022-11-16T03:31:42.709Z,20.02
2022-11-16T03:34:20.186Z,20.65
2022-11-16T03:36:51.436Z,27.92
2022-11-16T03:39:24.510Z,17.60
2022-11-16T03:41:52.325Z,15.90
2022-11-16T03:44:21.514Z,22.30
2022-11-16T03:46:50.677Z,24.48
2022-11-16T03:49:21.856Z,28.38
2022-11-16T03:51:50.481Z,21.42
2022-11-16T03:54:18.338Z,28.23
2022-11-16T03:56:45.995Z,21.10
2022-11-16T03:59:13.707Z,15.75
2022-11-16T04:01:44.755Z,17.45
2022-11-16T04:04:29.230Z,15.75
2022-11-16T04:07:15.765Z,13.73
2022-11-16T04:10:01.119Z,15.27
2022-11-16T04:12:49.409Z,14.43
2022-11-16T04:15:36.856Z,12.10
2022-11-16T04:18:22.600Z,13.10
2022-11-16T04:21:09.021Z,14.48
2022-11-16T04:23:55.226Z,14.38
2022-11-16T04:26:44.030Z,12.57
2022-11-16T04:29:12.108Z,15.43
2022-11-16T04:32:03.222Z,14.55
2022-11-16T04:34:48.638Z,15.88
2022-11-16T04:37:36.702Z,13.98
2022-11-16T04:40:06.207Z,14.98
2022-11-16T04:42:32.992Z,16.52
2022-11-16T04:45:18.367Z,15.20
2022-11-16T04:47:52.606Z,16.52
2022-11-16T04:50:22.558Z,18.13
2022-11-16T04:52:52.652Z,18.77
2022-11-16T04:55:21.145Z,15.30
2022-11-16T04:57:50.363Z,17.60
2022-11-16T05:00:18.751Z,14.48
2022-11-16T05:02:46.742Z,16.70
2022-11-16T05:05:15.196Z,17.55
2022-11-16T05:07:45.011Z,14.57
2022-11-16T05:10:20.837Z,18.23
2022-11-16T05:12:50.200Z,20.65
2022-11-16T05:15:19.676Z,20.00
2022-11-16T05:17:48.482Z,15.68
2022-11-16T05:20:37.613Z,18.02
2022-11-16T05:23:26.256Z,13.80
2022-11-16T05:25:56.287Z,13.85
2022-11-16T05:28:24.097Z,13.55
2022-11-16T05:30:52.195Z,13.13
2022-11-16T05:33:23.415Z,14.23
2022-11-16T05:35:51.804Z,11.38
2022-11-16T05:38:21.067Z,11.98
2022-11-16T05:40:52.759Z,15.18
2022-11-16T05:43:22.794Z,15.10
2022-11-16T05:46:01.369Z,12.90
2022-11-16T05:48:29.054Z,19.25
2022-11-16T05:50:59.425Z,16.35
2022-11-16T05:53:28.426Z,14.38
2022-11-16T05:55:56.411Z,19.98
2022-11-16T05:58:26.652Z,15.52
2022-11-16T06:00:54.707Z,11.10
2022-11-16T06:03:23.200Z,12.10
2022-11-16T06:05:53.183Z,11.27
2022-11-16T06:08:21.203Z,13.40
2022-11-16T06:10:52.114Z,11.98
2022-11-16T06:13:19.863Z,15.35
2022-11-16T06:15:54.846Z,13.35
2022-11-16T06:18:23.429Z,14.77
2022-11-16T06:20:51.613Z,13.15
2022-11-16T06:23:22.070Z,16.70
2022-11-16T06:25:54.650Z,14.80
2022-11-16T06:28:24.972Z,13.63
2022-11-16T06:30:54.337Z,14.52
2022-11-16T06:33:25.673Z,12.90
2022-11-16T06:35:58.316Z,23.65
2022-11-16T06:38:26.308Z,13.15
2022-11-16T06:40:57.640Z,15.70
2022-11-16T06:43:28.091Z,14.43
2022-11-16T06:45:58.877Z,19.80
2022-11-16T06:48:26.975Z,16.50
2022-11-16T06:50:55.407Z,15.80
2022-11-16T06:53:28.825Z,17.98
2022-11-16T06:56:02.589Z,14.13
2022-11-16T06:58:31.836Z,14.70
2022-11-16T07:01:08.028Z,15.05
2022-11-16T07:03:37.581Z,20.80
2022-11-16T07:06:08.192Z,25.13
2022-11-16T07:08:36.826Z,22.05
2022-11-16T07:11:06.329Z,21.60
2022-11-16T07:13:35.251Z,20.50
2022-11-16T07:16:04.738Z,16.98
2022-11-16T07:18:35.973Z,13.68
2022-11-16T07:21:07.563Z,15.73
2022-11-16T07:23:36.019Z,12.65
2022-11-16T07:26:05.588Z,13.25
2022-11-16T07:28:46.575Z,13.35
2022-11-16T07:31:17.766Z,10.40
2022-11-16T07:33:46.981Z,10.95
2022-11-16T07:36:33.198Z,10.77
2022-11-16T07:39:01.250Z,10.93
2022-11-16T07:41:29.708Z,10.95
2022-11-16T07:44:20.085Z,10.95
2022-11-16T07:47:01.747Z,8.95
2022-11-16T07:49:32.795Z,8.90
2022-11-16T07:52:06.178Z,7.57
2022-11-16T07:54:45.035Z,8.98
2022-11-16T07:57:13.791Z,4.43
2022-11-16T07:59:42.807Z,4.03
2022-11-16T08:02:10.753Z,5.13
2022-11-16T08:04:41.891Z,5.03
2022-11-16T08:07:10.304Z,3.75
2022-11-16T08:09:45.789Z,4.47
2022-11-16T08:12:15.694Z,3.83
2022-11-16T08:14:43.999Z,2.38
2022-11-16T08:17:13.443Z,3.60
2022-11-16T08:19:43.304Z,3.22
2022-11-16T08:22:14.304Z,2.55
2022-11-16T08:24:43.023Z,2.17
2022-11-16T08:27:10.786Z,4.28
2022-11-16T08:29:39.100Z,2.33
2022-11-16T08:32:09.752Z,4.00
2022-11-16T08:34:37.957Z,4.95
2022-11-16T08:37:08.162Z,4.00
2022-11-16T08:39:45.640Z,3.28
2022-11-16T08:42:13.566Z,5.05
2022-11-16T08:44:45.457Z,1.80
2022-11-16T08:47:15.680Z,2.45
2022-11-16T08:49:49.840Z,2.85
2022-11-16T08:52:20.665Z,4.45
2022-11-16T08:54:50.604Z,4.03
2022-11-16T08:57:18.803Z,6.95
2022-11-16T08:59:50.024Z,4.10
2022-11-16T09:02:25.193Z,4.53
2022-11-16T09:04:53.288Z,8.23
2022-11-16T09:07:22.790Z,4.32
2022-11-16T09:09:50.613Z,7.45
2022-11-16T09:12:18.721Z,5.15
2022-11-16T09:14:46.585Z,5.65
2022-11-16T09:17:18.821Z,7.35
2022-11-16T09:19:49.610Z,16.27
2022-11-16T09:22:17.342Z,11.85
2022-11-16T09:24:46.409Z,11.48
2022-11-16T09:27:14.929Z,7.63
2022-11-16T09:29:42.616Z,6.63
2022-11-16T09:32:10.495Z,10.07
2022-11-16T09:34:38.255Z,7.80
2022-11-16T09:37:06.044Z,4.00
2022-11-16T09:39:34.408Z,4.65
2022-11-16T09:42:22.544Z,3.97
2022-11-16T09:45:00.177Z,4.93
2022-11-16T09:47:41.174Z,3.90
2022-11-16T09:50:33.120Z,3.17
2022-11-16T09:53:11.266Z,3.30
2022-11-16T09:55:47.883Z,3.63
2022-11-16T09:58:21.133Z,4.05
2022-11-16T10:00:55.673Z,4.30
2022-11-16T10:03:26.331Z,2.10
2022-11-16T10:06:02.662Z,2.85
2022-11-16T10:08:43.840Z,4.85
2022-11-16T10:11:39.813Z,2.10
2022-11-16T10:14:35.580Z,5.40
2022-11-16T10:17:10.914Z,3.80
2022-11-16T10:19:46.624Z,10.65
2022-11-16T10:22:31.906Z,3.33
2022-11-16T10:25:01.191Z,4.75
2022-11-16T10:27:42.805Z,1.90
2022-11-16T10:30:15.634Z,2.90
2022-11-16T10:32:51.772Z,1.45
2022-11-16T10:35:26.642Z,3.55
2022-11-16T10:37:54.471Z,4.05
2022-11-16T10:40:25.956Z,2.20
2022-11-16T10:43:03.339Z,2.22
2022-11-16T10:45:41.195Z,3.70
2022-11-16T10:48:20.572Z,5.00
2022-11-16T10:50:49.920Z,4.07
2022-11-16T10:53:28.559Z,7.68
2022-11-16T10:56:14.283Z,2.72
2022-11-16T10:58:52.289Z,1.73
2022-11-16T11:01:36.760Z,2.10
2022-11-16T11:04:23.492Z,4.32
2022-11-16T11:06:53.717Z,2.22
2022-11-16T11:09:26.068Z,2.03
2022-11-16T11:12:20.263Z,4.55
2022-11-16T11:15:03.461Z,2.78
2022-11-16T11:17:34.245Z,1.85
2022-11-16T11:20:05.502Z,1.60
2022-11-16T11:22:35.871Z,3.35
2022-11-16T11:25:04.419Z,1.23
2022-11-16T11:27:35.890Z,3.65
2022-11-16T11:30:04.309Z,1.27
2022-11-16T11:32:41.475Z,2.90
2022-11-16T11:35:24.552Z,4.72
2022-11-16T11:37:55.393Z,7.55
2022-11-16T11:40:25.546Z,2.10
2022-11-16T11:42:56.548Z,6.20
2022-11-16T11:45:30.158Z,6.82
2022-11-16T11:48:02.795Z,1.92
2022-11-16T11:50:43.309Z,2.45
2022-11-16T11:53:19.822Z,3.13
2022-11-16T11:55:47.819Z,5.15
2022-11-16T11:58:17.994Z,2.55
2022-11-16T12:01:01.252Z,3.28
2022-11-16T12:04:22.560Z,4.35
2022-11-16T12:06:59.541Z,4.13
2022-11-16T12:09:40.787Z,3.95
2022-11-16T12:12:21.926Z,3.30
2022-11-16T12:15:03.361Z,3.25
2022-11-16T12:17:42.108Z,1.88
2022-11-16T12:20:30.888Z,2.08
2022-11-16T12:23:18.828Z,3.17
2022-11-16T12:25:54.122Z,4.78
2022-11-16T12:28:40.868Z,3.92
2022-11-16T12:31:38.812Z,4.75
2022-11-16T12:34:15.603Z,1.73
2022-11-16T12:36:51.708Z,2.70
2022-11-16T12:39:25.219Z,3.10
2022-11-16T12:42:18.033Z,1.88
2022-11-16T12:45:12.427Z,3.30
2022-11-16T12:47:54.140Z,2.63
2022-11-16T12:50:43.233Z,0.55
2022-11-16T12:53:29.252Z,2.97
2022-11-16T12:56:04.453Z,2.78
2022-11-16T12:58:50.384Z,3.42
2022-11-16T13:01:23.682Z,1.98
2022-11-16T13:03:55.971Z,4.27
2022-11-16T13:06:30.574Z,4.40
2022-11-16T13:09:04.721Z,3.28
2022-11-16T13:14:09.144Z,1.92
2022-11-16T13:16:37.048Z,2.83
2022-11-16T13:19:07.709Z,3.05
2022-11-16T13:21:44.547Z,3.13
2022-11-16T13:24:33.455Z,1.83
2022-11-16T13:27:17.760Z,0.43
2022-11-16T13:29:52.265Z,1.52
2022-11-16T13:32:26.732Z,1.83
2022-11-16T13:34:55.300Z,3.38
2022-11-16T13:37:42.269Z,2.92
2022-11-16T13:40:26.287Z,1.85
2022-11-16T13:43:17.779Z,1.65
2022-11-16T13:45:53.889Z,2.17
2022-11-16T13:48:26.582Z,2.90
2022-11-16T13:50:59.402Z,2.70
2022-11-16T13:56:28.735Z,2.25
2022-11-16T13:58:59.419Z,4.05
2022-11-16T14:01:57.549Z,2.72
2022-11-16T14:04:40.819Z,8.18
2022-11-16T14:07:36.649Z,4.20
2022-11-16T14:10:07.863Z,1.48
2022-11-16T14:12:59.593Z,5.65
2022-11-16T14:15:34.451Z,2.15
2022-11-16T14:18:21.799Z,2.42
2022-11-16T14:20:59.764Z,5.57
2022-11-16T14:24:05.896Z,1.33
2022-11-16T14:26:46.820Z,1.65
2022-11-16T14:29:33.048Z,4.45
2022-11-16T14:32:04.140Z,2.92
2022-11-16T14:34:34.387Z,6.32
2022-11-16T14:37:03.226Z,3.22
2022-11-16T14:39:35.219Z,2.25
2022-11-16T14:42:06.942Z,4.95
2022-11-16T14:44:38.512Z,2.83
2022-11-16T14:47:21.851Z,1.65
2022-11-16T14:49:50.220Z,2.65
2022-11-16T14:52:26.943Z,3.42
2022-11-16T14:54:58.081Z,2.03
2022-11-16T14:57:25.840Z,3.38
2022-11-16T15:00:09.579Z,5.10
2022-11-16T15:02:40.247Z,2.20
2022-11-16T15:05:08.748Z,1.75
2022-11-16T15:07:36.881Z,3.70
2022-11-16T15:10:05.203Z,3.88
2022-11-16T15:12:45.811Z,3.03
2022-11-16T15:15:16.872Z,9.93
2022-11-16T15:17:47.473Z,8.63
2022-11-16T15:20:21.060Z,5.40
2022-11-16T15:22:51.786Z,3.17
2022-11-16T15:25:28.610Z,3.58
2022-11-16T15:27:57.927Z,4.40
2022-11-16T15:30:27.705Z,4.50
2022-11-16T15:32:57.538Z,7.30
2022-11-16T15:35:29.613Z,4.03
2022-11-16T15:38:05.372Z,3.72
2022-11-16T15:40:34.033Z,3.15
2022-11-16T15:43:04.965Z,11.20
2022-11-16T15:45:33.902Z,2.58
2022-11-16T15:48:04.882Z,7.00
2022-11-16T15:50:32.737Z,3.47
2022-11-16T15:53:00.453Z,4.85
2022-11-16T15:55:33.960Z,6.07
2022-11-16T15:58:04.609Z,4.17
2022-11-16T16:00:35.817Z,5.97
2022-11-16T16:03:07.522Z,4.00
2022-11-16T16:05:39.683Z,5.07
2022-11-16T16:08:24.205Z,6.50
2022-11-16T16:10:59.824Z,5.70
2022-11-16T16:13:30.505Z,6.50
2022-11-16T16:16:23.523Z,4.60
2022-11-16T16:18:54.308Z,5.85
2022-11-16T16:21:22.704Z,7.38
2022-11-16T16:23:52.327Z,8.57
2022-11-16T16:26:20.529Z,6.82
2022-11-16T16:28:48.694Z,3.13
2022-11-16T16:31:20.018Z,3.50
2022-11-16T16:33:47.954Z,2.92
2022-11-16T16:36:17.073Z,4.68
2022-11-16T16:38:44.892Z,8.25
2022-11-16T16:41:24.029Z,4.38
2022-11-16T16:43:52.354Z,3.92
2022-11-16T16:46:20.344Z,7.68
2022-11-16T16:48:48.036Z,7.10
2022-11-16T16:51:17.138Z,5.63
2022-11-16T16:53:44.842Z,5.35
2022-11-16T16:56:16.265Z,5.32
2022-11-16T16:58:43.998Z,4.57
2022-11-16T17:01:11.985Z,5.15
2022-11-16T17:03:40.007Z,4.70
2022-11-16T17:06:07.758Z,7.05
2022-11-16T17:08:38.093Z,8.00
2022-11-16T17:11:06.665Z,6.78
2022-11-16T17:13:34.636Z,7.03
2022-11-16T17:16:05.647Z,8.75
2022-11-16T17:18:33.497Z,6.80
2022-11-16T17:21:04.897Z,6.88
2022-11-16T17:23:33.168Z,6.72
2022-11-16T17:26:05.933Z,6.13
2022-11-16T17:28:33.758Z,6.43
2022-11-16T17:31:03.143Z,2.60
2022-11-16T17:33:34.734Z,3.85
2022-11-16T17:36:03.858Z,4.60
2022-11-16T17:38:31.765Z,3.83
2022-11-16T17:41:06.525Z,3.75
2022-11-16T17:43:35.376Z,11.98
2022-11-16T17:46:07.710Z,5.03
2022-11-16T17:48:36.586Z,8.98
2022-11-16T17:51:05.068Z,4.85
2022-11-16T17:53:34.369Z,3.55
2022-11-16T17:56:02.557Z,7.78
2022-11-16T17:58:32.530Z,9.90
2022-11-16T18:01:00.616Z,6.03
2022-11-16T18:03:28.421Z,4.32
2022-11-16T18:06:02.741Z,5.68
2022-11-16T18:08:30.604Z,3.40
2022-11-16T18:10:58.303Z,4.75
2022-11-16T18:13:26.237Z,4.57
2022-11-16T18:15:55.289Z,4.00
2022-11-16T18:18:23.062Z,8.25
2022-11-16T18:20:50.815Z,6.32
2022-11-16T18:23:18.601Z,5.22
2022-11-16T18:25:46.387Z,5.43
2022-11-16T18:28:14.093Z,8.07
2022-11-16T18:30:42.175Z,6.47
2022-11-16T18:33:11.396Z,7.78
2022-11-16T18:35:39.139Z,5.05
2022-11-16T18:38:12.782Z,13.25
2022-11-16T18:40:41.117Z,5.30
2022-11-16T18:43:13.271Z,7.93
2022-11-16T18:45:41.172Z,6.80
2022-11-16T18:48:08.871Z,5.55
2022-11-16T18:50:38.104Z,12.73
2022-11-16T18:53:05.812Z,12.23
2022-11-16T18:55:33.569Z,8.20
2022-11-16T18:58:01.339Z,7.90
2022-11-16T19:00:29.325Z,15.13
2022-11-16T19:02:59.276Z,14.73
2022-11-16T19:05:27.044Z,13.13
2022-11-16T19:07:56.155Z,10.13
2022-11-16T19:10:23.974Z,13.57
2022-11-16T19:12:51.681Z,10.68
2022-11-16T19:15:19.413Z,7.53
2022-11-16T19:18:06.709Z,9.10
2022-11-16T19:20:35.204Z,10.13
2022-11-16T19:23:04.323Z,9.10
2022-11-16T19:25:32.229Z,9.95
2022-11-16T19:28:00.059Z,8.90
2022-11-16T19:30:27.812Z,9.23
2022-11-16T19:32:57.528Z,9.13
2022-11-16T19:35:25.387Z,11.98
2022-11-16T19:37:53.190Z,10.45
2022-11-16T19:40:24.991Z,16.25
2022-11-16T19:42:54.085Z,16.00
2022-11-16T19:45:21.800Z,13.68
2022-11-16T19:47:49.580Z,14.30
2022-11-16T19:50:17.845Z,13.98
2022-11-16T19:52:48.295Z,15.70
2022-11-16T19:55:16.453Z,13.40
2022-11-16T19:57:48.465Z,14.63
2022-11-16T20:00:17.839Z,13.45
2022-11-16T20:02:45.668Z,14.77
2022-11-16T20:05:13.389Z,20.85
2022-11-16T20:07:41.229Z,11.23
2022-11-16T20:10:09.657Z,13.10
2022-11-16T20:12:37.404Z,11.25
2022-11-16T20:15:07.535Z,9.93
2022-11-16T20:17:35.429Z,11.80
2022-11-16T20:20:03.206Z,15.60
2022-11-16T20:22:30.973Z,13.63
2022-11-16T20:25:01.434Z,12.18
2022-11-16T20:27:29.284Z,12.38
2022-11-16T20:29:57.203Z,16.67
2022-11-16T20:32:26.395Z,11.93
2022-11-16T20:34:54.113Z,9.77
2022-11-16T20:37:21.905Z,11.95
2022-11-16T20:39:52.489Z,11.13
2022-11-16T20:42:20.248Z,12.20
2022-11-16T20:44:49.048Z,13.38
2022-11-16T20:47:16.782Z,13.23
2022-11-16T20:49:45.846Z,10.63
2022-11-16T20:52:13.555Z,16.88
2022-11-16T20:54:41.386Z,18.05
2022-11-16T20:57:09.128Z,14.48
2022-11-16T20:59:36.967Z,10.25
2022-11-16T21:02:04.729Z,13.20
2022-11-16T21:04:32.520Z,13.65
2022-11-16T21:07:01.627Z,13.35
2022-11-16T21:09:49.305Z,13.80
2022-11-16T21:12:38.764Z,15.70
2022-11-16T21:15:10.021Z,12.32
2022-11-16T21:17:38.031Z,13.52
2022-11-16T21:20:26.367Z,8.52
2022-11-16T21:22:55.511Z,13.50
2022-11-16T21:25:23.195Z,10.40
2022-11-16T21:27:50.940Z,12.82
2022-11-16T21:30:18.712Z,16.52
2022-11-16T21:32:46.415Z,16.05
2022-11-16T21:35:14.295Z,15.10
2022-11-16T21:37:41.979Z,15.45
2022-11-16T21:40:12.895Z,15.88
2022-11-16T21:42:40.682Z,15.52
2022-11-16T21:45:09.638Z,15.68
2022-11-16T21:47:37.348Z,15.38
2022-11-16T21:50:30.605Z,17.88
2022-11-16T21:52:53.661Z,15.35
2022-11-16T21:55:22.714Z,19.40
2022-11-16T21:57:50.432Z,12.38
2022-11-16T22:00:19.631Z,11.63
2022-11-16T22:02:47.305Z,16.98
2022-11-16T22:05:32.619Z,15.43
2022-11-16T22:08:05.753Z,14.73
2022-11-16T22:10:35.173Z,14.10
2022-11-16T22:13:03.009Z,21.08
2022-11-16T22:15:31.084Z,18.50
2022-11-16T22:17:58.828Z,21.65
2022-11-16T22:20:26.506Z,17.30
2022-11-16T22:22:54.228Z,14.43
2022-11-16T22:25:22.064Z,16.60
2022-11-16T22:28:20.251Z,15.82
2022-11-16T22:30:38.860Z,13.45
2022-11-16T22:33:06.550Z,16.95
2022-11-16T22:35:34.289Z,12.45
2022-11-16T22:38:04.158Z,11.93
2022-11-16T22:40:31.967Z,9.95
2022-11-16T22:43:01.196Z,11.00
2022-11-16T22:45:28.939Z,13.13
2022-11-16T22:47:56.851Z,9.52
2022-11-16T22:50:24.560Z,10.45
2022-11-16T22:52:55.305Z,10.57
2022-11-16T22:55:23.072Z,19.15
2022-11-16T22:57:50.754Z,9.18
2022-11-16T23:00:20.425Z,13.15
2022-11-16T23:02:48.364Z,16.00
2022-11-16T23:05:16.104Z,16.27
2022-11-16T23:07:43.943Z,14.18
2022-11-16T23:10:11.723Z,14.35
2022-11-16T23:12:56.399Z,13.25
2022-11-16T23:15:42.975Z,12.50
2022-11-16T23:18:10.777Z,14.05
2022-11-16T23:20:55.974Z,13.20
2022-11-16T23:23:41.691Z,15.10
2022-11-16T23:26:32.034Z,11.65
2022-11-16T23:29:00.279Z,14.85
2022-11-16T23:31:29.429Z,14.90
2022-11-16T23:33:57.175Z,11.20
2022-11-16T23:36:24.925Z,14.02
2022-11-16T23:38:52.621Z,12.30
2022-11-16T23:41:37.863Z,14.18
2022-11-16T23:44:05.842Z,16.33
2022-11-16T23:46:35.389Z,13.57
2022-11-16T23:49:03.051Z,12.43
2022-11-16T23:51:30.752Z,14.43
2022-11-16T23:53:58.445Z,11.52
2022-11-16T23:56:26.337Z,17.65
2022-11-16T23:58:57.295Z,12.57
